CY-0003 weather

Pınarbaşı Air Base
Kyrenia District, Cyprus

Public forecast

Using degrees Celsius for public forecast. Weather courtesy of forecast.io.

Closest aviation weather report (METAR) to Pınarbaşı Air Base

Closest report is Ercan International Airport, 13.4 nm (24.8 km) ESE. Retrieved 2019/11/22 01:20 UTC (0 seconds ago):

LCEN 220120Z 29004KT CAVOK 11/09 Q1015 NOSIG RMK RWY11 28005KT

Closest aviation forecast (TAF) to Pınarbaşı Air Base

Closest forecast is Ercan International Airport, 13.4 nm (24.8 km) ESE. Retrieved 2019-11-22 00:33 UTC (43 minutes ago):

TAF TAF LCEN 212240Z 2200/2224 28012KT CAVOK BECMG 2206/2209 08012KT SCT025 BKN200